sensor_id;sensor_type;location;lat;lon;timestamp;temperature;humidity
23803;DHT22;12082;51.786;6.018;2023-05-19T00:01:55;5.20;99.90
23803;DHT22;12082;51.786;6.018;2023-05-19T00:04:21;5.20;99.90
23803;DHT22;12082;51.786;6.018;2023-05-19T00:06:49;5.10;99.90
23803;DHT22;12082;51.786;6.018;2023-05-19T00:09:15;5.10;99.90
23803;DHT22;12082;51.786;6.018;2023-05-19T00:11:41;5.10;99.90
23803;DHT22;12082;51.786;6.018;2023-05-19T00:14:08;5.10;99.90
23803;DHT22;12082;51.786;6.018;2023-05-19T00:16:34;5.10;99.90
23803;DHT22;12082;51.786;6.018;2023-05-19T00:19:02;5.00;99.90
23803;DHT22;12082;51.786;6.018;2023-05-19T00:21:28;5.00;99.90
23803;DHT22;12082;51.786;6.018;2023-05-19T00:23:55;5.00;99.90
23803;DHT22;12082;51.786;6.018;2023-05-19T00:26:21;5.00;99.90
23803;DHT22;12082;51.786;6.018;2023-05-19T00:28:48;5.00;99.90
23803;DHT22;12082;51.786;6.018;2023-05-19T00:31:14;5.00;99.90
23803;DHT22;12082;51.786;6.018;2023-05-19T00:33:39;5.10;99.90
23803;DHT22;12082;51.786;6.018;2023-05-19T00:36:05;5.10;99.90
23803;DHT22;12082;51.786;6.018;2023-05-19T00:38:32;5.10;99.90
23803;DHT22;12082;51.786;6.018;2023-05-19T00:40:59;5.10;99.90
23803;DHT22;12082;51.786;6.018;2023-05-19T00:43:25;5.10;99.90
23803;DHT22;12082;51.786;6.018;2023-05-19T00:45:51;5.10;99.90
23803;DHT22;12082;51.786;6.018;2023-05-19T00:48:17;5.10;99.90
23803;DHT22;12082;51.786;6.018;2023-05-19T00:50:42;5.00;99.90
23803;DHT22;12082;51.786;6.018;2023-05-19T00:53:08;5.00;99.90
23803;DHT22;12082;51.786;6.018;2023-05-19T00:55:36;5.00;99.90
23803;DHT22;12082;51.786;6.018;2023-05-19T00:58:05;5.00;99.90
23803;DHT22;12082;51.786;6.018;2023-05-19T01:00:30;5.00;99.90
23803;DHT22;12082;51.786;6.018;2023-05-19T01:02:56;5.80;99.90
23803;DHT22;12082;51.786;6.018;2023-05-19T01:05:22;5.10;99.90
23803;DHT22;12082;51.786;6.018;2023-05-19T01:07:47;5.10;99.90
23803;DHT22;12082;51.786;6.018;2023-05-19T01:10:18;5.10;99.90
23803;DHT22;12082;51.786;6.018;2023-05-19T01:12:44;5.20;99.90
23803;DHT22;12082;51.786;6.018;2023-05-19T01:15:10;5.20;99.90
23803;DHT22;12082;51.786;6.018;2023-05-19T01:20:08;5.30;99.90
23803;DHT22;12082;51.786;6.018;2023-05-19T01:31:32;5.20;99.90
23803;DHT22;12082;51.786;6.018;2023-05-19T01:33:59;5.20;99.90
23803;DHT22;12082;51.786;6.018;2023-05-19T01:36:25;5.10;99.90
23803;DHT22;12082;51.786;6.018;2023-05-19T01:38:55;5.10;99.90
23803;DHT22;12082;51.786;6.018;2023-05-19T01:41:21;5.00;99.90
23803;DHT22;12082;51.786;6.018;2023-05-19T01:43:48;5.00;99.90
23803;DHT22;12082;51.786;6.018;2023-05-19T01:46:15;5.00;99.90
23803;DHT22;12082;51.786;6.018;2023-05-19T01:48:42;5.00;99.90
23803;DHT22;12082;51.786;6.018;2023-05-19T01:51:08;5.00;99.90
23803;DHT22;12082;51.786;6.018;2023-05-19T01:53:34;5.00;99.90
23803;DHT22;12082;51.786;6.018;2023-05-19T01:56:00;4.90;99.90
23803;DHT22;12082;51.786;6.018;2023-05-19T01:58:37;4.90;99.90
23803;DHT22;12082;51.786;6.018;2023-05-19T02:04:39;4.90;99.90
23803;DHT22;12082;51.786;6.018;2023-05-19T02:07:20;4.90;99.90
23803;DHT22;12082;51.786;6.018;2023-05-19T02:10:04;4.90;99.90
23803;DHT22;12082;51.786;6.018;2023-05-19T02:12:35;4.90;99.90
23803;DHT22;12082;51.786;6.018;2023-05-19T02:16:03;4.90;99.90
23803;DHT22;12082;51.786;6.018;2023-05-19T02:17:57;4.90;99.90
23803;DHT22;12082;51.786;6.018;2023-05-19T02:20:24;4.90;99.90
23803;DHT22;12082;51.786;6.018;2023-05-19T02:22:50;4.90;99.90
23803;DHT22;12082;51.786;6.018;2023-05-19T02:25:15;4.90;99.90
23803;DHT22;12082;51.786;6.018;2023-05-19T02:27:41;4.90;99.90
23803;DHT22;12082;51.786;6.018;2023-05-19T02:30:07;4.90;99.90
23803;DHT22;12082;51.786;6.018;2023-05-19T02:32:33;4.90;99.90
23803;DHT22;12082;51.786;6.018;2023-05-19T02:34:59;4.90;99.90
23803;DHT22;12082;51.786;6.018;2023-05-19T02:37:25;4.90;99.90
23803;DHT22;12082;51.786;6.018;2023-05-19T02:39:53;4.90;99.90
23803;DHT22;12082;51.786;6.018;2023-05-19T02:42:18;4.90;99.90
23803;DHT22;12082;51.786;6.018;2023-05-19T02:44:44;4.90;99.90
23803;DHT22;12082;51.786;6.018;2023-05-19T02:47:10;4.80;99.90
23803;DHT22;12082;51.786;6.018;2023-05-19T02:49:36;4.80;99.90
23803;DHT22;12082;51.786;6.018;2023-05-19T02:52:02;4.80;99.90
23803;DHT22;12082;51.786;6.018;2023-05-19T02:54:32;4.70;99.90
23803;DHT22;12082;51.786;6.018;2023-05-19T02:56:58;4.80;99.90
23803;DHT22;12082;51.786;6.018;2023-05-19T02:59:24;4.80;99.90
23803;DHT22;12082;51.786;6.018;2023-05-19T03:01:54;4.70;99.90
23803;DHT22;12082;51.786;6.018;2023-05-19T03:04:20;4.70;99.90
23803;DHT22;12082;51.786;6.018;2023-05-19T03:06:45;4.70;99.90
23803;DHT22;12082;51.786;6.018;2023-05-19T03:09:12;4.70;99.90
23803;DHT22;12082;51.786;6.018;2023-05-19T03:11:40;4.70;99.90
23803;DHT22;12082;51.786;6.018;2023-05-19T03:14:06;4.80;99.90
23803;DHT22;12082;51.786;6.018;2023-05-19T03:16:34;4.80;99.90
23803;DHT22;12082;51.786;6.018;2023-05-19T03:18:59;4.80;99.90
23803;DHT22;12082;51.786;6.018;2023-05-19T03:21:25;4.80;99.90
23803;DHT22;12082;51.786;6.018;2023-05-19T03:23:51;4.80;99.90
23803;DHT22;12082;51.786;6.018;2023-05-19T03:26:17;4.80;99.90
23803;DHT22;12082;51.786;6.018;2023-05-19T03:28:42;4.80;99.90
23803;DHT22;12082;51.786;6.018;2023-05-19T03:31:08;4.80;99.90
23803;DHT22;12082;51.786;6.018;2023-05-19T03:33:33;4.70;99.90
23803;DHT22;12082;51.786;6.018;2023-05-19T03:35:59;4.80;99.90
23803;DHT22;12082;51.786;6.018;2023-05-19T03:38:24;4.70;99.90
23803;DHT22;12082;51.786;6.018;2023-05-19T03:40:50;4.80;99.90
23803;DHT22;12082;51.786;6.018;2023-05-19T03:43:15;4.70;99.90
23803;DHT22;12082;51.786;6.018;2023-05-19T03:45:41;5.30;99.90
23803;DHT22;12082;51.786;6.018;2023-05-19T03:48:07;4.70;99.90
23803;DHT22;12082;51.786;6.018;2023-05-19T03:50:32;4.80;99.90
23803;DHT22;12082;51.786;6.018;2023-05-19T03:52:59;4.80;99.90
23803;DHT22;12082;51.786;6.018;2023-05-19T03:55:25;4.80;99.90
23803;DHT22;12082;51.786;6.018;2023-05-19T03:57:51;4.90;99.90
23803;DHT22;12082;51.786;6.018;2023-05-19T04:00:17;4.90;99.90
23803;DHT22;12082;51.786;6.018;2023-05-19T04:02:43;4.90;99.90
23803;DHT22;12082;51.786;6.018;2023-05-19T04:05:09;4.90;99.90
23803;DHT22;12082;51.786;6.018;2023-05-19T04:07:34;4.90;99.90
23803;DHT22;12082;51.786;6.018;2023-05-19T04:10:05;4.90;99.90
23803;DHT22;12082;51.786;6.018;2023-05-19T04:12:31;4.90;99.90
23803;DHT22;12082;51.786;6.018;2023-05-19T04:14:57;4.90;99.90
23803;DHT22;12082;51.786;6.018;2023-05-19T04:17:23;4.90;99.90
23803;DHT22;12082;51.786;6.018;2023-05-19T04:19:51;5.00;99.90
23803;DHT22;12082;51.786;6.018;2023-05-19T04:22:16;5.00;99.90
23803;DHT22;12082;51.786;6.018;2023-05-19T04:24:42;5.00;99.90
23803;DHT22;12082;51.786;6.018;2023-05-19T04:27:07;5.00;99.90
23803;DHT22;12082;51.786;6.018;2023-05-19T04:29:36;5.10;99.90
23803;DHT22;12082;51.786;6.018;2023-05-19T04:32:03;5.10;99.90
23803;DHT22;12082;51.786;6.018;2023-05-19T04:34:35;5.20;99.90
23803;DHT22;12082;51.786;6.018;2023-05-19T04:37:07;5.30;99.90
23803;DHT22;12082;51.786;6.018;2023-05-19T04:39:34;5.30;99.90
23803;DHT22;12082;51.786;6.018;2023-05-19T04:42:03;5.40;99.90
23803;DHT22;12082;51.786;6.018;2023-05-19T04:44:28;5.50;99.90
23803;DHT22;12082;51.786;6.018;2023-05-19T04:46:55;5.50;99.90
23803;DHT22;12082;51.786;6.018;2023-05-19T04:49:22;5.60;99.90
23803;DHT22;12082;51.786;6.018;2023-05-19T04:51:52;5.70;99.90
23803;DHT22;12082;51.786;6.018;2023-05-19T04:54:18;5.80;99.90
23803;DHT22;12082;51.786;6.018;2023-05-19T04:56:43;5.90;99.90
23803;DHT22;12082;51.786;6.018;2023-05-19T04:59:09;6.00;99.90
23803;DHT22;12082;51.786;6.018;2023-05-19T05:01:35;6.10;99.90
23803;DHT22;12082;51.786;6.018;2023-05-19T05:04:04;6.10;99.90
23803;DHT22;12082;51.786;6.018;2023-05-19T05:06:30;6.50;99.90
23803;DHT22;12082;51.786;6.018;2023-05-19T05:08:56;6.30;99.90
23803;DHT22;12082;51.786;6.018;2023-05-19T05:11:22;6.40;99.90
23803;DHT22;12082;51.786;6.018;2023-05-19T05:13:48;6.50;99.90
23803;DHT22;12082;51.786;6.018;2023-05-19T05:16:14;6.50;99.90
23803;DHT22;12082;51.786;6.018;2023-05-19T05:18:40;6.60;99.90
23803;DHT22;12082;51.786;6.018;2023-05-19T05:21:06;6.60;99.90
23803;DHT22;12082;51.786;6.018;2023-05-19T05:23:32;6.70;99.90
23803;DHT22;12082;51.786;6.018;2023-05-19T05:25:58;6.80;99.90
23803;DHT22;12082;51.786;6.018;2023-05-19T05:28:24;6.90;99.90
23803;DHT22;12082;51.786;6.018;2023-05-19T05:30:49;7.10;99.90
23803;DHT22;12082;51.786;6.018;2023-05-19T05:33:15;7.30;99.90
23803;DHT22;12082;51.786;6.018;2023-05-19T05:35:42;7.40;99.90
23803;DHT22;12082;51.786;6.018;2023-05-19T05:38:08;7.70;99.90
23803;DHT22;12082;51.786;6.018;2023-05-19T05:40:35;7.90;99.90
23803;DHT22;12082;51.786;6.018;2023-05-19T05:43:01;8.90;99.90
23803;DHT22;12082;51.786;6.018;2023-05-19T05:45:26;9.50;99.90
23803;DHT22;12082;51.786;6.018;2023-05-19T05:47:52;10.20;99.90
23803;DHT22;12082;51.786;6.018;2023-05-19T05:50:18;11.00;99.90
23803;DHT22;12082;51.786;6.018;2023-05-19T05:52:45;11.90;99.90
23803;DHT22;12082;51.786;6.018;2023-05-19T05:55:12;12.70;99.90
23803;DHT22;12082;51.786;6.018;2023-05-19T05:57:38;13.10;99.90
23803;DHT22;12082;51.786;6.018;2023-05-19T06:00:07;13.90;99.90
23803;DHT22;12082;51.786;6.018;2023-05-19T06:02:44;14.60;99.90
23803;DHT22;12082;51.786;6.018;2023-05-19T06:05:13;14.90;99.90
23803;DHT22;12082;51.786;6.018;2023-05-19T06:07:39;15.10;99.90
23803;DHT22;12082;51.786;6.018;2023-05-19T06:10:06;14.80;99.90
23803;DHT22;12082;51.786;6.018;2023-05-19T06:12:33;14.60;99.90
23803;DHT22;12082;51.786;6.018;2023-05-19T06:14:59;14.90;99.90
23803;DHT22;12082;51.786;6.018;2023-05-19T06:17:25;15.30;99.90
23803;DHT22;12082;51.786;6.018;2023-05-19T06:19:50;15.50;99.90
23803;DHT22;12082;51.786;6.018;2023-05-19T06:22:16;15.80;99.90
23803;DHT22;12082;51.786;6.018;2023-05-19T06:24:42;15.70;99.90
23803;DHT22;12082;51.786;6.018;2023-05-19T06:27:07;15.70;99.90
23803;DHT22;12082;51.786;6.018;2023-05-19T06:29:33;15.90;99.90
23803;DHT22;12082;51.786;6.018;2023-05-19T06:31:58;16.30;99.90
23803;DHT22;12082;51.786;6.018;2023-05-19T06:34:24;16.90;99.90
23803;DHT22;12082;51.786;6.018;2023-05-19T06:36:50;17.10;99.90
23803;DHT22;12082;51.786;6.018;2023-05-19T06:39:15;17.20;99.90
23803;DHT22;12082;51.786;6.018;2023-05-19T06:41:41;17.20;99.90
23803;DHT22;12082;51.786;6.018;2023-05-19T06:44:06;17.20;99.90
23803;DHT22;12082;51.786;6.018;2023-05-19T06:46:33;17.30;99.90
23803;DHT22;12082;51.786;6.018;2023-05-19T06:48:59;17.00;99.90
23803;DHT22;12082;51.786;6.018;2023-05-19T06:51:24;16.60;99.90
23803;DHT22;12082;51.786;6.018;2023-05-19T06:53:50;16.20;99.90
23803;DHT22;12082;51.786;6.018;2023-05-19T06:56:16;15.80;99.90
23803;DHT22;12082;51.786;6.018;2023-05-19T06:58:42;15.30;99.90
23803;DHT22;12082;51.786;6.018;2023-05-19T07:01:08;14.90;99.90
23803;DHT22;12082;51.786;6.018;2023-05-19T07:03:34;14.60;99.90
23803;DHT22;12082;51.786;6.018;2023-05-19T07:05:59;14.40;99.90
23803;DHT22;12082;51.786;6.018;2023-05-19T07:08:25;14.50;99.90
23803;DHT22;12082;51.786;6.018;2023-05-19T07:10:52;14.80;99.90
23803;DHT22;12082;51.786;6.018;2023-05-19T07:13:18;15.20;99.90
23803;DHT22;12082;51.786;6.018;2023-05-19T07:15:43;15.50;99.90
23803;DHT22;12082;51.786;6.018;2023-05-19T07:18:09;15.40;99.90
23803;DHT22;12082;51.786;6.018;2023-05-19T07:20:34;16.70;99.90
23803;DHT22;12082;51.786;6.018;2023-05-19T07:23:00;17.00;99.90
23803;DHT22;12082;51.786;6.018;2023-05-19T07:25:27;17.30;99.90
23803;DHT22;12082;51.786;6.018;2023-05-19T07:27:55;17.70;99.90
23803;DHT22;12082;51.786;6.018;2023-05-19T07:30:20;17.40;99.90
23803;DHT22;12082;51.786;6.018;2023-05-19T07:32:46;17.90;99.90
23803;DHT22;12082;51.786;6.018;2023-05-19T07:35:12;18.20;99.90
23803;DHT22;12082;51.786;6.018;2023-05-19T07:37:37;17.90;99.90
23803;DHT22;12082;51.786;6.018;2023-05-19T07:40:04;17.70;99.90
23803;DHT22;12082;51.786;6.018;2023-05-19T07:42:31;17.70;99.90
23803;DHT22;12082;51.786;6.018;2023-05-19T07:44:56;17.60;99.90
23803;DHT22;12082;51.786;6.018;2023-05-19T07:47:22;17.50;99.90
23803;DHT22;12082;51.786;6.018;2023-05-19T07:49:47;17.70;99.90
23803;DHT22;12082;51.786;6.018;2023-05-19T07:52:13;17.70;99.90
23803;DHT22;12082;51.786;6.018;2023-05-19T07:54:39;17.70;99.90
23803;DHT22;12082;51.786;6.018;2023-05-19T07:57:04;17.60;99.90
23803;DHT22;12082;51.786;6.018;2023-05-19T07:59:30;17.40;99.90
23803;DHT22;12082;51.786;6.018;2023-05-19T08:01:55;17.80;99.90
23803;DHT22;12082;51.786;6.018;2023-05-19T08:04:21;18.20;99.90
23803;DHT22;12082;51.786;6.018;2023-05-19T08:06:47;18.50;99.90
23803;DHT22;12082;51.786;6.018;2023-05-19T08:09:13;18.70;99.90
23803;DHT22;12082;51.786;6.018;2023-05-19T08:11:38;18.50;99.90
23803;DHT22;12082;51.786;6.018;2023-05-19T08:14:04;18.80;99.90
23803;DHT22;12082;51.786;6.018;2023-05-19T08:16:29;19.10;99.90
23803;DHT22;12082;51.786;6.018;2023-05-19T08:18:55;19.50;99.90
23803;DHT22;12082;51.786;6.018;2023-05-19T08:21:21;19.50;99.90
23803;DHT22;12082;51.786;6.018;2023-05-19T08:23:46;19.90;99.90
23803;DHT22;12082;51.786;6.018;2023-05-19T08:26:12;19.90;99.90
23803;DHT22;12082;51.786;6.018;2023-05-19T08:28:38;20.00;99.90
23803;DHT22;12082;51.786;6.018;2023-05-19T08:31:03;20.20;99.90
23803;DHT22;12082;51.786;6.018;2023-05-19T08:33:29;20.20;99.90
23803;DHT22;12082;51.786;6.018;2023-05-19T08:35:55;20.40;99.90
23803;DHT22;12082;51.786;6.018;2023-05-19T08:38:22;20.60;99.90
23803;DHT22;12082;51.786;6.018;2023-05-19T08:40:48;20.60;99.90
23803;DHT22;12082;51.786;6.018;2023-05-19T08:43:14;20.30;99.90
23803;DHT22;12082;51.786;6.018;2023-05-19T08:45:42;20.00;99.90
23803;DHT22;12082;51.786;6.018;2023-05-19T08:48:11;19.70;99.90
23803;DHT22;12082;51.786;6.018;2023-05-19T08:50:39;20.00;99.90
23803;DHT22;12082;51.786;6.018;2023-05-19T08:53:22;20.00;99.90
23803;DHT22;12082;51.786;6.018;2023-05-19T08:56:15;19.90;99.90
23803;DHT22;12082;51.786;6.018;2023-05-19T08:58:43;19.80;99.90
23803;DHT22;12082;51.786;6.018;2023-05-19T09:01:12;19.80;99.90
23803;DHT22;12082;51.786;6.018;2023-05-19T09:03:39;19.70;99.90
23803;DHT22;12082;51.786;6.018;2023-05-19T09:06:06;19.30;99.90
23803;DHT22;12082;51.786;6.018;2023-05-19T09:08:33;19.50;99.90
23803;DHT22;12082;51.786;6.018;2023-05-19T09:10:59;19.50;99.90
23803;DHT22;12082;51.786;6.018;2023-05-19T09:13:25;19.40;99.90
23803;DHT22;12082;51.786;6.018;2023-05-19T09:15:52;19.00;99.90
23803;DHT22;12082;51.786;6.018;2023-05-19T09:18:18;18.90;99.90
23803;DHT22;12082;51.786;6.018;2023-05-19T09:20:44;18.70;99.90
23803;DHT22;12082;51.786;6.018;2023-05-19T09:23:17;19.10;99.90
23803;DHT22;12082;51.786;6.018;2023-05-19T09:25:50;19.80;99.90
23803;DHT22;12082;51.786;6.018;2023-05-19T09:30:48;19.40;99.90
23803;DHT22;12082;51.786;6.018;2023-05-19T09:33:18;19.40;99.90
23803;DHT22;12082;51.786;6.018;2023-05-19T09:35:47;19.30;99.90
23803;DHT22;12082;51.786;6.018;2023-05-19T09:38:36;19.40;99.90
23803;DHT22;12082;51.786;6.018;2023-05-19T09:41:04;19.30;99.90
23803;DHT22;12082;51.786;6.018;2023-05-19T09:43:30;19.30;99.90
23803;DHT22;12082;51.786;6.018;2023-05-19T09:46:07;19.20;99.90
23803;DHT22;12082;51.786;6.018;2023-05-19T09:48:34;19.20;99.90
23803;DHT22;12082;51.786;6.018;2023-05-19T09:51:01;19.20;99.90
23803;DHT22;12082;51.786;6.018;2023-05-19T09:53:28;19.20;99.90
23803;DHT22;12082;51.786;6.018;2023-05-19T09:55:55;19.30;99.90
23803;DHT22;12082;51.786;6.018;2023-05-19T09:58:25;19.20;99.90
23803;DHT22;12082;51.786;6.018;2023-05-19T10:00:51;19.00;99.90
23803;DHT22;12082;51.786;6.018;2023-05-19T10:03:19;18.80;99.90
23803;DHT22;12082;51.786;6.018;2023-05-19T10:05:47;18.30;99.90
23803;DHT22;12082;51.786;6.018;2023-05-19T10:08:13;18.40;99.90
23803;DHT22;12082;51.786;6.018;2023-05-19T10:10:43;18.50;99.90
23803;DHT22;12082;51.786;6.018;2023-05-19T10:13:09;18.70;99.90
23803;DHT22;12082;51.786;6.018;2023-05-19T10:15:36;19.00;99.90
23803;DHT22;12082;51.786;6.018;2023-05-19T10:18:02;19.00;99.90
23803;DHT22;12082;51.786;6.018;2023-05-19T10:20:29;19.20;99.90
23803;DHT22;12082;51.786;6.018;2023-05-19T10:22:55;19.30;99.90
23803;DHT22;12082;51.786;6.018;2023-05-19T10:25:21;19.00;99.90
23803;DHT22;12082;51.786;6.018;2023-05-19T10:27:57;18.80;99.90
23803;DHT22;12082;51.786;6.018;2023-05-19T10:30:32;18.90;99.90
23803;DHT22;12082;51.786;6.018;2023-05-19T10:32:59;18.80;99.90
23803;DHT22;12082;51.786;6.018;2023-05-19T10:38:32;18.60;99.90
23803;DHT22;12082;51.786;6.018;2023-05-19T10:44:00;18.70;99.90
23803;DHT22;12082;51.786;6.018;2023-05-19T10:46:30;18.70;99.90
23803;DHT22;12082;51.786;6.018;2023-05-19T10:48:56;18.70;99.90
23803;DHT22;12082;51.786;6.018;2023-05-19T10:51:31;18.70;99.90
23803;DHT22;12082;51.786;6.018;2023-05-19T10:54:00;18.50;99.90
23803;DHT22;12082;51.786;6.018;2023-05-19T10:56:29;18.50;99.90
23803;DHT22;12082;51.786;6.018;2023-05-19T10:58:57;18.60;99.90
23803;DHT22;12082;51.786;6.018;2023-05-19T11:01:29;18.70;99.90
23803;DHT22;12082;51.786;6.018;2023-05-19T11:03:55;18.90;99.90
23803;DHT22;12082;51.786;6.018;2023-05-19T11:06:28;18.80;99.90
23803;DHT22;12082;51.786;6.018;2023-05-19T11:08:58;18.70;99.90
23803;DHT22;12082;51.786;6.018;2023-05-19T11:11:49;18.70;99.90
23803;DHT22;12082;51.786;6.018;2023-05-19T11:14:25;18.60;99.90
23803;DHT22;12082;51.786;6.018;2023-05-19T11:16:55;18.60;99.90
23803;DHT22;12082;51.786;6.018;2023-05-19T11:19:31;18.70;99.90
23803;DHT22;12082;51.786;6.018;2023-05-19T11:22:08;18.70;99.90
23803;DHT22;12082;51.786;6.018;2023-05-19T11:27:38;18.70;99.90
23803;DHT22;12082;51.786;6.018;2023-05-19T11:32:35;18.50;99.90
23803;DHT22;12082;51.786;6.018;2023-05-19T11:35:07;18.20;99.90
23803;DHT22;12082;51.786;6.018;2023-05-19T11:37:33;18.10;99.90
23803;DHT22;12082;51.786;6.018;2023-05-19T11:40:06;18.30;99.90
23803;DHT22;12082;51.786;6.018;2023-05-19T11:42:32;18.50;99.90
23803;DHT22;12082;51.786;6.018;2023-05-19T11:45:02;18.80;99.90
23803;DHT22;12082;51.786;6.018;2023-05-19T11:47:30;18.90;99.90
23803;DHT22;12082;51.786;6.018;2023-05-19T11:49:57;19.00;99.90
23803;DHT22;12082;51.786;6.018;2023-05-19T11:52:23;18.90;99.90
23803;DHT22;12082;51.786;6.018;2023-05-19T11:54:49;18.50;99.90
23803;DHT22;12082;51.786;6.018;2023-05-19T11:57:15;18.40;99.90
23803;DHT22;12082;51.786;6.018;2023-05-19T11:59:41;18.30;99.90
23803;DHT22;12082;51.786;6.018;2023-05-19T12:02:22;18.30;99.90
23803;DHT22;12082;51.786;6.018;2023-05-19T12:04:52;18.50;99.90
23803;DHT22;12082;51.786;6.018;2023-05-19T12:07:22;18.60;99.90
23803;DHT22;12082;51.786;6.018;2023-05-19T12:09:49;18.60;99.90
23803;DHT22;12082;51.786;6.018;2023-05-19T12:12:20;18.60;99.90
23803;DHT22;12082;51.786;6.018;2023-05-19T12:14:46;18.60;99.90
23803;DHT22;12082;51.786;6.018;2023-05-19T12:17:13;18.70;99.90
23803;DHT22;12082;51.786;6.018;2023-05-19T12:19:40;18.80;99.90
23803;DHT22;12082;51.786;6.018;2023-05-19T12:22:07;18.90;99.90
23803;DHT22;12082;51.786;6.018;2023-05-19T12:24:34;19.10;99.90
23803;DHT22;12082;51.786;6.018;2023-05-19T12:27:10;19.50;99.90
23803;DHT22;12082;51.786;6.018;2023-05-19T12:29:39;19.80;99.90
23803;DHT22;12082;51.786;6.018;2023-05-19T12:32:08;19.70;99.60
23803;DHT22;12082;51.786;6.018;2023-05-19T12:34:35;19.80;99.90
23803;DHT22;12082;51.786;6.018;2023-05-19T12:37:01;19.70;99.90
23803;DHT22;12082;51.786;6.018;2023-05-19T12:39:27;19.90;99.90
23803;DHT22;12082;51.786;6.018;2023-05-19T12:42:02;19.90;99.90
23803;DHT22;12082;51.786;6.018;2023-05-19T12:44:28;19.80;99.90
23803;DHT22;12082;51.786;6.018;2023-05-19T12:46:56;19.50;99.90
23803;DHT22;12082;51.786;6.018;2023-05-19T12:49:22;19.70;99.90
23803;DHT22;12082;51.786;6.018;2023-05-19T12:51:52;19.70;99.90
23803;DHT22;12082;51.786;6.018;2023-05-19T12:54:22;19.70;99.90
23803;DHT22;12082;51.786;6.018;2023-05-19T12:56:51;19.80;99.90
23803;DHT22;12082;51.786;6.018;2023-05-19T12:59:23;19.70;99.90
23803;DHT22;12082;51.786;6.018;2023-05-19T13:01:58;19.40;99.90
23803;DHT22;12082;51.786;6.018;2023-05-19T13:04:24;19.70;99.90
23803;DHT22;12082;51.786;6.018;2023-05-19T13:06:52;19.50;99.90
23803;DHT22;12082;51.786;6.018;2023-05-19T13:09:18;19.80;99.90
23803;DHT22;12082;51.786;6.018;2023-05-19T13:11:45;20.10;99.90
23803;DHT22;12082;51.786;6.018;2023-05-19T13:14:15;20.30;99.90
23803;DHT22;12082;51.786;6.018;2023-05-19T13:16:43;20.10;99.90
23803;DHT22;12082;51.786;6.018;2023-05-19T13:19:09;19.80;99.90
23803;DHT22;12082;51.786;6.018;2023-05-19T13:21:34;19.50;99.90
23803;DHT22;12082;51.786;6.018;2023-05-19T13:24:00;19.40;99.90
23803;DHT22;12082;51.786;6.018;2023-05-19T13:26:25;19.50;99.90
23803;DHT22;12082;51.786;6.018;2023-05-19T13:28:51;19.70;99.90
23803;DHT22;12082;51.786;6.018;2023-05-19T13:31:17;20.20;99.90
23803;DHT22;12082;51.786;6.018;2023-05-19T13:33:43;20.30;99.90
23803;DHT22;12082;51.786;6.018;2023-05-19T13:36:08;20.40;99.90
23803;DHT22;12082;51.786;6.018;2023-05-19T13:38:34;20.30;99.90
23803;DHT22;12082;51.786;6.018;2023-05-19T13:40:59;20.40;99.90
23803;DHT22;12082;51.786;6.018;2023-05-19T13:43:25;20.30;99.90
23803;DHT22;12082;51.786;6.018;2023-05-19T13:45:50;20.20;99.50
23803;DHT22;12082;51.786;6.018;2023-05-19T13:48:16;20.30;99.90
23803;DHT22;12082;51.786;6.018;2023-05-19T13:50:41;20.30;99.90
23803;DHT22;12082;51.786;6.018;2023-05-19T13:53:07;20.30;99.90
23803;DHT22;12082;51.786;6.018;2023-05-19T13:55:32;20.40;99.90
23803;DHT22;12082;51.786;6.018;2023-05-19T13:57:58;20.60;99.90
23803;DHT22;12082;51.786;6.018;2023-05-19T14:00:24;20.60;99.90
23803;DHT22;12082;51.786;6.018;2023-05-19T14:02:49;20.10;99.90
23803;DHT22;12082;51.786;6.018;2023-05-19T14:05:15;19.90;99.90
23803;DHT22;12082;51.786;6.018;2023-05-19T14:07:40;20.00;99.90
23803;DHT22;12082;51.786;6.018;2023-05-19T14:10:07;20.10;99.90
23803;DHT22;12082;51.786;6.018;2023-05-19T14:12:34;20.40;99.90
23803;DHT22;12082;51.786;6.018;2023-05-19T14:15:00;20.50;99.90
23803;DHT22;12082;51.786;6.018;2023-05-19T14:17:26;20.70;99.60
23803;DHT22;12082;51.786;6.018;2023-05-19T14:19:52;20.90;99.90
23803;DHT22;12082;51.786;6.018;2023-05-19T14:22:18;21.00;99.90
23803;DHT22;12082;51.786;6.018;2023-05-19T14:24:44;21.00;99.90
23803;DHT22;12082;51.786;6.018;2023-05-19T14:27:09;21.10;99.90
23803;DHT22;12082;51.786;6.018;2023-05-19T14:29:35;21.00;99.90
23803;DHT22;12082;51.786;6.018;2023-05-19T14:32:00;20.90;99.90
23803;DHT22;12082;51.786;6.018;2023-05-19T14:34:27;21.00;98.20
23803;DHT22;12082;51.786;6.018;2023-05-19T14:36:52;21.00;98.40
23803;DHT22;12082;51.786;6.018;2023-05-19T14:39:18;21.00;99.90
23803;DHT22;12082;51.786;6.018;2023-05-19T14:41:43;21.00;99.90
23803;DHT22;12082;51.786;6.018;2023-05-19T14:44:09;21.20;98.20
23803;DHT22;12082;51.786;6.018;2023-05-19T14:46:34;21.20;99.90
23803;DHT22;12082;51.786;6.018;2023-05-19T14:49:01;21.40;98.10
23803;DHT22;12082;51.786;6.018;2023-05-19T14:51:27;21.60;97.10
23803;DHT22;12082;51.786;6.018;2023-05-19T14:53:53;21.50;96.90
23803;DHT22;12082;51.786;6.018;2023-05-19T14:56:18;21.30;99.90
23803;DHT22;12082;51.786;6.018;2023-05-19T14:58:44;21.20;98.10
23803;DHT22;12082;51.786;6.018;2023-05-19T15:01:09;20.90;99.10
23803;DHT22;12082;51.786;6.018;2023-05-19T15:03:35;20.30;99.70
23803;DHT22;12082;51.786;6.018;2023-05-19T15:06:00;20.10;99.90
23803;DHT22;12082;51.786;6.018;2023-05-19T15:08:26;20.30;98.60
23803;DHT22;12082;51.786;6.018;2023-05-19T15:10:51;20.70;99.90
23803;DHT22;12082;51.786;6.018;2023-05-19T15:13:17;20.80;99.00
23803;DHT22;12082;51.786;6.018;2023-05-19T15:15:43;20.90;96.60
23803;DHT22;12082;51.786;6.018;2023-05-19T15:18:09;21.00;99.90
23803;DHT22;12082;51.786;6.018;2023-05-19T15:20:35;21.00;98.50
23803;DHT22;12082;51.786;6.018;2023-05-19T15:23:01;20.90;98.80
23803;DHT22;12082;51.786;6.018;2023-05-19T15:25:26;20.90;99.90
23803;DHT22;12082;51.786;6.018;2023-05-19T15:27:52;20.90;98.50
23803;DHT22;12082;51.786;6.018;2023-05-19T15:30:17;20.90;98.70
23803;DHT22;12082;51.786;6.018;2023-05-19T15:32:43;21.00;98.30
23803;DHT22;12082;51.786;6.018;2023-05-19T15:35:08;21.00;98.70
23803;DHT22;12082;51.786;6.018;2023-05-19T15:37:34;21.10;98.90
23803;DHT22;12082;51.786;6.018;2023-05-19T15:40:00;21.10;99.90
23803;DHT22;12082;51.786;6.018;2023-05-19T15:42:25;21.20;99.30
23803;DHT22;12082;51.786;6.018;2023-05-19T15:44:51;21.30;98.30
23803;DHT22;12082;51.786;6.018;2023-05-19T15:47:16;21.50;98.40
23803;DHT22;12082;51.786;6.018;2023-05-19T15:49:42;21.60;98.50
23803;DHT22;12082;51.786;6.018;2023-05-19T15:52:07;21.80;99.90
23803;DHT22;12082;51.786;6.018;2023-05-19T15:54:33;21.60;97.60
23803;DHT22;12082;51.786;6.018;2023-05-19T15:56:58;21.50;98.00
23803;DHT22;12082;51.786;6.018;2023-05-19T15:59:24;21.30;97.30
23803;DHT22;12082;51.786;6.018;2023-05-19T16:01:49;21.00;97.90
23803;DHT22;12082;51.786;6.018;2023-05-19T16:04:16;20.80;99.40